Air Navigation Services of Czech Republic
Airport: LKKB Updated:  22.11.2017 10:08:11  UTC
 METAR LKKB 22.11. 10:00 ...
METAR LKKB 221000Z 24017KT 9999 FEW037 SCT220 10/04 Q1012 NOSIG=
 TAF LKKB 22.11. 05:00 ...
TAF LKKB 220500Z 2206/2306 24012KT 9999 BKN040      TEMPO 2206/2214 25016KT      BECMG 2206/2208 CAVOK      BECMG 2220/2300 24005KT=